createdAt,value
2023-02-05T00:01:18.247Z,25.90
2023-02-05T00:04:04.925Z,24.45
2023-02-05T00:06:51.549Z,23.60
2023-02-05T00:09:40.905Z,24.10
2023-02-05T00:12:28.017Z,24.33
2023-02-05T00:15:14.504Z,25.80
2023-02-05T00:18:02.447Z,24.17
2023-02-05T00:20:48.729Z,25.70
2023-02-05T00:23:36.212Z,24.27
2023-02-05T00:26:22.813Z,24.63
2023-02-05T00:29:09.445Z,24.45
2023-02-05T00:31:56.397Z,24.67
2023-02-05T00:34:45.157Z,24.48
2023-02-05T00:37:32.193Z,26.83
2023-02-05T00:40:19.461Z,26.38
2023-02-05T00:43:06.193Z,25.63
2023-02-05T00:45:53.266Z,26.75
2023-02-05T00:48:41.208Z,27.33
2023-02-05T00:51:29.783Z,26.05
2023-02-05T00:54:16.170Z,26.92
2023-02-05T00:57:02.849Z,27.50
2023-02-05T00:59:49.170Z,27.30
2023-02-05T01:02:36.166Z,26.90
2023-02-05T01:05:23.660Z,27.70
2023-02-05T01:08:14.149Z,28.98
2023-02-05T01:11:01.279Z,26.27
2023-02-05T01:13:48.467Z,27.08
2023-02-05T01:16:35.072Z,27.13
2023-02-05T01:19:21.949Z,26.05
2023-02-05T01:22:11.248Z,25.02
2023-02-05T01:24:59.448Z,26.48
2023-02-05T01:27:46.112Z,25.67
2023-02-05T01:30:34.040Z,27.02
2023-02-05T01:33:21.094Z,26.30
2023-02-05T01:36:07.800Z,27.23
2023-02-05T01:38:54.441Z,26.33
2023-02-05T01:41:44.562Z,24.73
2023-02-05T01:44:32.283Z,25.45
2023-02-05T01:47:19.173Z,24.27
2023-02-05T01:50:06.048Z,25.17
2023-02-05T01:52:53.566Z,25.15
2023-02-05T01:55:44.851Z,22.35
2023-02-05T01:58:37.001Z,23.58
2023-02-05T02:01:24.270Z,20.77
2023-02-05T02:04:15.558Z,22.58
2023-02-05T02:07:02.709Z,21.48
2023-02-05T02:09:50.568Z,20.15
2023-02-05T02:12:39.300Z,19.75
2023-02-05T02:15:29.350Z,20.88
2023-02-05T02:18:28.041Z,20.30
2023-02-05T02:21:41.629Z,18.15
2023-02-05T02:25:01.859Z,18.00
2023-02-05T02:27:54.897Z,18.52
2023-02-05T02:30:44.991Z,18.25
2023-02-05T02:33:37.509Z,17.85
2023-02-05T02:36:31.223Z,17.63
2023-02-05T02:39:24.212Z,16.35
2023-02-05T02:42:16.576Z,16.35
2023-02-05T02:45:09.649Z,15.30
2023-02-05T02:48:00.856Z,15.80
2023-02-05T02:50:53.058Z,15.52
2023-02-05T02:53:45.064Z,15.65
2023-02-05T02:56:34.604Z,15.18
2023-02-05T02:59:25.825Z,15.77
2023-02-05T03:02:15.925Z,14.85
2023-02-05T03:05:05.938Z,14.63
2023-02-05T03:07:57.618Z,13.98
2023-02-05T03:10:49.136Z,13.75
2023-02-05T03:13:35.868Z,12.55
2023-02-05T03:16:24.479Z,13.00
2023-02-05T03:19:13.585Z,11.85
2023-02-05T03:22:04.616Z,12.70
2023-02-05T03:24:52.437Z,11.38
2023-02-05T03:27:40.155Z,9.75
2023-02-05T03:30:33.284Z,10.63
2023-02-05T03:33:31.721Z,9.93
2023-02-05T03:36:27.430Z,8.93
2023-02-05T03:39:27.811Z,8.85
2023-02-05T03:42:28.297Z,9.05
2023-02-05T03:45:22.645Z,7.80
2023-02-05T03:48:36.561Z,8.40
2023-02-05T03:51:32.994Z,7.32
2023-02-05T03:54:28.539Z,7.45
2023-02-05T03:57:22.402Z,7.47
2023-02-05T04:00:11.395Z,6.68
2023-02-05T04:03:00.583Z,6.47
2023-02-05T04:05:51.221Z,6.25
2023-02-05T04:08:40.894Z,6.05
2023-02-05T04:11:28.271Z,6.28
2023-02-05T04:14:15.544Z,6.47
2023-02-05T04:17:03.570Z,7.07
2023-02-05T04:19:50.127Z,6.78
2023-02-05T04:22:39.819Z,7.75
2023-02-05T04:25:27.941Z,7.32
2023-02-05T04:28:20.123Z,7.72
2023-02-05T04:31:08.640Z,8.10
2023-02-05T04:33:55.907Z,8.23
2023-02-05T04:36:42.641Z,8.73
2023-02-05T04:39:29.322Z,9.20
2023-02-05T04:42:17.115Z,9.30
2023-02-05T04:45:05.968Z,9.02
2023-02-05T04:47:52.663Z,10.60
2023-02-05T04:50:39.245Z,10.25
2023-02-05T04:53:25.766Z,10.40
2023-02-05T04:56:14.414Z,9.27
2023-02-05T04:59:02.404Z,10.02
2023-02-05T05:01:48.931Z,10.05
2023-02-05T05:04:35.662Z,20.95
2023-02-05T05:07:22.455Z,10.60
2023-02-05T05:10:10.030Z,6.55
2023-02-05T05:12:56.673Z,4.50
2023-02-05T05:15:45.091Z,5.68
2023-02-05T05:18:32.148Z,4.85
2023-02-05T05:21:18.694Z,4.55
2023-02-05T05:24:05.937Z,3.50
2023-02-05T05:26:52.485Z,3.22
2023-02-05T05:29:39.226Z,2.50
2023-02-05T05:32:27.003Z,2.92
2023-02-05T05:35:13.739Z,2.22
2023-02-05T05:38:01.174Z,2.80
2023-02-05T05:41:06.164Z,2.60
2023-02-05T05:43:53.864Z,2.58
2023-02-05T05:46:40.569Z,2.45
2023-02-05T05:49:28.479Z,1.88
2023-02-05T05:52:15.359Z,2.83
2023-02-05T05:55:01.994Z,1.85
2023-02-05T05:57:48.598Z,1.80
2023-02-05T06:00:35.900Z,1.13
2023-02-05T06:03:23.976Z,2.08
2023-02-05T06:06:13.470Z,1.67
2023-02-05T06:09:00.141Z,1.40
2023-02-05T06:11:46.844Z,1.70
2023-02-05T06:14:33.878Z,1.25
2023-02-05T06:17:21.522Z,1.05
2023-02-05T06:20:08.572Z,1.33
2023-02-05T06:22:56.630Z,1.80
2023-02-05T06:25:43.118Z,1.50
2023-02-05T06:28:29.697Z,1.98
2023-02-05T06:31:17.413Z,1.50
2023-02-05T06:34:04.184Z,1.45
2023-02-05T06:36:50.900Z,1.20
2023-02-05T06:39:38.934Z,1.33
2023-02-05T06:42:25.720Z,1.40
2023-02-05T06:45:12.482Z,1.20
2023-02-05T06:47:59.084Z,1.30
2023-02-05T06:50:45.659Z,1.70
2023-02-05T06:53:32.275Z,2.45
2023-02-05T06:56:20.202Z,1.60
2023-02-05T06:59:07.073Z,1.38
2023-02-05T07:01:53.855Z,1.83
2023-02-05T07:04:40.238Z,1.65
2023-02-05T07:07:27.157Z,1.38
2023-02-05T07:10:13.804Z,1.58
2023-02-05T07:13:01.760Z,1.38
2023-02-05T07:15:49.752Z,2.05
2023-02-05T07:18:36.531Z,1.42
2023-02-05T07:21:22.851Z,2.05
2023-02-05T07:24:09.880Z,2.50
2023-02-05T07:26:56.888Z,2.38
2023-02-05T07:29:44.640Z,2.45
2023-02-05T07:32:31.228Z,2.42
2023-02-05T07:35:17.880Z,2.28
2023-02-05T07:38:04.642Z,2.22
2023-02-05T07:40:51.121Z,2.92
2023-02-05T07:43:37.795Z,2.40
2023-02-05T07:46:25.686Z,2.40
2023-02-05T07:49:12.336Z,1.77
2023-02-05T07:51:58.982Z,2.00
2023-02-05T07:54:45.384Z,2.10
2023-02-05T07:57:31.913Z,2.83
2023-02-05T08:00:18.902Z,2.08
2023-02-05T08:03:06.793Z,3.53
2023-02-05T08:05:53.308Z,2.08
2023-02-05T08:08:40.073Z,2.20
2023-02-05T08:11:26.674Z,1.88
2023-02-05T08:14:16.660Z,2.33
2023-02-05T08:17:03.293Z,2.55
2023-02-05T08:19:51.463Z,2.38
2023-02-05T08:22:40.600Z,2.63
2023-02-05T08:25:27.328Z,2.38
2023-02-05T08:28:14.121Z,3.28
2023-02-05T08:31:00.748Z,2.85
2023-02-05T08:33:47.896Z,2.90
2023-02-05T08:36:35.723Z,2.95
2023-02-05T08:39:22.368Z,3.47
2023-02-05T08:42:09.062Z,2.50
2023-02-05T08:44:58.350Z,3.95
2023-02-05T08:47:45.098Z,4.65
2023-02-05T08:50:31.721Z,3.53
2023-02-05T08:53:19.485Z,2.75
2023-02-05T08:56:06.960Z,4.38
2023-02-05T08:58:53.363Z,3.17
2023-02-05T09:01:40.850Z,4.50
2023-02-05T09:04:27.607Z,5.30
2023-02-05T09:07:14.128Z,3.75
2023-02-05T09:10:01.929Z,3.92
2023-02-05T09:12:48.746Z,3.67
2023-02-05T09:15:35.712Z,3.20
2023-02-05T09:18:22.491Z,3.92
2023-02-05T09:21:10.853Z,4.07
2023-02-05T09:23:58.223Z,5.00
2023-02-05T09:26:46.227Z,4.00
2023-02-05T09:29:32.665Z,3.75
2023-02-05T09:32:19.271Z,4.40
2023-02-05T09:35:06.101Z,3.85
2023-02-05T09:37:52.368Z,3.80
2023-02-05T09:40:44.227Z,4.00
2023-02-05T09:43:45.230Z,3.88
2023-02-05T09:46:42.742Z,4.20
2023-02-05T09:49:31.479Z,3.28
2023-02-05T09:52:22.937Z,3.25
2023-02-05T09:55:20.430Z,4.63
2023-02-05T09:58:12.466Z,3.75
2023-02-05T10:01:03.736Z,3.40
2023-02-05T10:03:56.101Z,4.30
2023-02-05T10:07:01.992Z,4.07
2023-02-05T10:10:16.205Z,3.50
2023-02-05T10:13:32.570Z,3.50
2023-02-05T10:16:37.150Z,4.40
2023-02-05T10:19:47.724Z,3.20
2023-02-05T10:22:46.847Z,4.32
2023-02-05T10:25:45.809Z,3.60
2023-02-05T10:28:54.991Z,3.63
2023-02-05T10:31:44.833Z,5.13
2023-02-05T10:34:47.404Z,4.82
2023-02-05T10:37:42.824Z,3.92
2023-02-05T10:40:34.720Z,3.95
2023-02-05T10:43:26.618Z,3.33
2023-02-05T10:46:15.022Z,3.17
2023-02-05T10:49:09.812Z,4.15
2023-02-05T10:51:56.572Z,4.40
2023-02-05T10:54:43.710Z,4.45
2023-02-05T10:57:37.598Z,4.22
2023-02-05T11:00:24.529Z,4.28
2023-02-05T11:03:19.206Z,4.50
2023-02-05T11:06:10.998Z,4.25
2023-02-05T11:08:57.690Z,5.38
2023-02-05T11:11:44.412Z,3.97
2023-02-05T11:14:35.188Z,3.97
2023-02-05T11:17:24.435Z,3.67
2023-02-05T11:20:29.803Z,4.30
2023-02-05T11:23:20.650Z,4.63
2023-02-05T11:26:17.642Z,3.67
2023-02-05T11:29:21.078Z,3.67
2023-02-05T11:32:19.979Z,3.28
2023-02-05T11:35:17.232Z,3.88
2023-02-05T11:38:10.154Z,3.60
2023-02-05T11:41:00.326Z,3.10
2023-02-05T11:46:45.555Z,3.75
2023-02-05T11:49:35.847Z,4.25
2023-02-05T11:55:26.522Z,2.63
2023-02-05T11:58:36.261Z,3.38
2023-02-05T12:01:25.989Z,2.58
2023-02-05T12:04:20.067Z,3.35
2023-02-05T12:07:16.100Z,3.42
2023-02-05T12:10:02.902Z,3.92
2023-02-05T12:13:02.567Z,3.45
2023-02-05T12:16:01.510Z,2.87
2023-02-05T12:18:57.760Z,2.97
2023-02-05T12:21:54.669Z,3.55
2023-02-05T12:25:00.506Z,3.88
2023-02-05T12:28:05.863Z,3.42
2023-02-05T12:31:05.917Z,2.92
2023-02-05T12:34:10.059Z,2.70
2023-02-05T12:37:13.167Z,3.85
2023-02-05T12:40:08.677Z,3.25
2023-02-05T12:43:01.968Z,2.67
2023-02-05T12:45:58.714Z,2.95
2023-02-05T12:49:01.691Z,3.50
2023-02-05T12:52:01.941Z,4.63
2023-02-05T12:54:59.704Z,3.25
2023-02-05T12:57:50.918Z,3.90
2023-02-05T13:00:42.519Z,3.15
2023-02-05T13:03:38.271Z,2.88
2023-02-05T13:06:31.342Z,3.20
2023-02-05T13:09:23.866Z,3.17
2023-02-05T13:12:14.800Z,2.75
2023-02-05T13:15:08.327Z,3.05
2023-02-05T13:18:00.488Z,3.13
2023-02-05T13:21:08.370Z,3.35
2023-02-05T13:24:23.179Z,3.92
2023-02-05T13:27:38.764Z,3.88
2023-02-05T13:30:29.463Z,4.00
2023-02-05T13:33:16.077Z,3.72
2023-02-05T13:36:29.174Z,4.45
2023-02-05T13:39:34.670Z,3.35
2023-02-05T13:42:45.644Z,4.47
2023-02-05T13:45:53.786Z,5.85
2023-02-05T13:49:15.919Z,3.80
2023-02-05T13:52:29.600Z,3.90
2023-02-05T13:55:43.530Z,3.10
2023-02-05T13:58:33.300Z,3.05
2023-02-05T14:01:25.032Z,3.23
2023-02-05T14:04:21.866Z,5.15
2023-02-05T14:07:26.942Z,4.57
2023-02-05T14:10:28.820Z,3.97
2023-02-05T14:13:23.928Z,4.35
2023-02-05T14:16:36.374Z,4.50
2023-02-05T14:19:26.525Z,3.50
2023-02-05T14:22:33.052Z,4.27
2023-02-05T14:26:02.247Z,3.35
2023-02-05T14:28:53.811Z,4.20
2023-02-05T14:31:49.483Z,4.50
2023-02-05T14:34:58.709Z,4.45
2023-02-05T14:37:48.318Z,4.00
2023-02-05T14:40:36.312Z,4.15
2023-02-05T14:43:28.276Z,4.95
2023-02-05T14:46:30.360Z,4.65
2023-02-05T14:49:24.647Z,3.83
2023-02-05T14:52:27.359Z,4.22
2023-02-05T14:55:21.100Z,4.15
2023-02-05T14:58:11.678Z,4.60
2023-02-05T15:04:03.832Z,4.15
2023-02-05T15:06:51.807Z,4.22
2023-02-05T15:09:43.001Z,4.50
2023-02-05T15:12:42.521Z,4.57
2023-02-05T15:15:34.376Z,4.90
2023-02-05T15:18:25.258Z,4.97
2023-02-05T15:21:17.770Z,5.47
2023-02-05T15:24:14.853Z,4.93
2023-02-05T15:27:04.925Z,4.47
2023-02-05T15:29:57.278Z,4.80
2023-02-05T15:32:49.558Z,4.10
2023-02-05T15:35:37.657Z,5.32
2023-02-05T15:38:33.705Z,4.65
2023-02-05T15:41:22.769Z,3.88
2023-02-05T15:44:21.267Z,4.63
2023-02-05T15:47:15.360Z,6.25
2023-02-05T15:50:03.572Z,5.80
2023-02-05T15:52:50.236Z,4.57
2023-02-05T15:55:39.382Z,4.82
2023-02-05T15:58:27.693Z,4.53
2023-02-05T16:01:24.430Z,5.43
2023-02-05T16:04:18.830Z,4.63
2023-02-05T16:07:18.790Z,5.53
2023-02-05T16:10:17.556Z,4.70
2023-02-05T16:13:07.562Z,4.72
2023-02-05T16:16:01.139Z,5.82
2023-02-05T16:18:52.411Z,4.15
2023-02-05T16:21:45.069Z,5.70
2023-02-05T16:24:34.705Z,4.47
2023-02-05T16:27:27.142Z,4.30
2023-02-05T16:30:20.763Z,5.60
2023-02-05T16:33:13.589Z,5.50
2023-02-05T16:36:02.913Z,7.50
2023-02-05T16:38:54.657Z,4.57
2023-02-05T16:41:44.360Z,5.80
2023-02-05T16:44:33.970Z,4.90
2023-02-05T16:47:21.817Z,5.38
2023-02-05T16:50:38.169Z,4.75
2023-02-05T16:53:26.838Z,4.45
2023-02-05T16:56:20.471Z,4.90
2023-02-05T16:59:07.332Z,4.38
2023-02-05T17:01:54.615Z,5.22
2023-02-05T17:04:42.851Z,6.10
2023-02-05T17:07:30.967Z,6.57
2023-02-05T17:10:21.754Z,5.07
2023-02-05T17:13:28.373Z,5.53
2023-02-05T17:16:29.844Z,4.97
2023-02-05T17:19:24.994Z,4.78
2023-02-05T17:22:20.991Z,5.05
2023-02-05T17:25:08.290Z,5.03
2023-02-05T17:27:55.240Z,4.07
2023-02-05T17:30:42.896Z,5.50
2023-02-05T17:33:29.873Z,4.72
2023-02-05T17:36:18.006Z,3.85
2023-02-05T17:39:06.090Z,5.20
2023-02-05T17:42:07.465Z,4.80
2023-02-05T17:44:54.520Z,5.70
2023-02-05T17:47:41.690Z,4.72
2023-02-05T17:50:28.517Z,4.43
2023-02-05T17:53:14.934Z,4.68
2023-02-05T17:56:03.026Z,5.82
2023-02-05T17:58:51.201Z,5.57
2023-02-05T18:01:37.867Z,5.28
2023-02-05T18:04:25.117Z,6.45
2023-02-05T18:07:21.089Z,5.32
2023-02-05T18:10:11.443Z,4.68
2023-02-05T18:12:59.528Z,4.38
2023-02-05T18:15:46.292Z,4.63
2023-02-05T18:18:34.201Z,4.72
2023-02-05T18:21:21.500Z,6.05
2023-02-05T18:24:08.006Z,6.53
2023-02-05T18:26:54.649Z,5.45
2023-02-05T18:29:43.893Z,4.60
2023-02-05T18:32:31.034Z,4.38
2023-02-05T18:35:17.995Z,7.15
2023-02-05T18:38:04.871Z,5.00
2023-02-05T18:40:51.704Z,4.90
2023-02-05T18:43:39.082Z,5.50
2023-02-05T18:46:29.093Z,4.90
2023-02-05T18:49:15.852Z,4.90
2023-02-05T18:52:02.540Z,4.60
2023-02-05T18:54:49.464Z,5.95
2023-02-05T18:57:36.369Z,4.72
2023-02-05T19:00:23.495Z,5.35
2023-02-05T19:03:11.398Z,4.32
2023-02-05T19:05:58.170Z,5.32
2023-02-05T19:08:45.365Z,4.55
2023-02-05T19:11:33.968Z,5.05
2023-02-05T19:14:22.576Z,5.10
2023-02-05T19:17:09.470Z,5.63
2023-02-05T19:19:58.600Z,6.97
2023-02-05T19:22:45.969Z,5.97
2023-02-05T19:25:32.505Z,5.72
2023-02-05T19:28:19.408Z,5.05
2023-02-05T19:31:08.314Z,4.30
2023-02-05T19:33:56.211Z,5.57
2023-02-05T19:36:43.991Z,5.03
2023-02-05T19:39:30.922Z,4.25
2023-02-05T19:42:17.446Z,5.35
2023-02-05T19:45:04.453Z,5.20
2023-02-05T19:47:51.494Z,5.80
2023-02-05T19:50:38.083Z,4.78
2023-02-05T19:53:25.990Z,5.53
2023-02-05T19:56:14.751Z,5.90
2023-02-05T19:59:01.616Z,5.82
2023-02-05T20:01:49.730Z,5.75
2023-02-05T20:04:36.347Z,5.43
2023-02-05T20:07:23.208Z,6.22
2023-02-05T20:10:11.370Z,5.25
2023-02-05T20:13:00.436Z,5.00
2023-02-05T20:15:47.088Z,4.85
2023-02-05T20:18:34.117Z,4.82
2023-02-05T20:21:20.619Z,5.50
2023-02-05T20:24:08.317Z,4.97
2023-02-05T20:26:57.349Z,4.30
2023-02-05T20:30:02.020Z,4.95
2023-02-05T20:32:48.698Z,5.88
2023-02-05T20:35:36.126Z,4.88
2023-02-05T20:38:22.522Z,4.47
2023-02-05T20:41:13.150Z,5.95
2023-02-05T20:46:47.966Z,5.45
2023-02-05T20:49:35.845Z,5.00
2023-02-05T20:52:22.519Z,5.55
2023-02-05T20:55:09.539Z,6.93
2023-02-05T20:57:56.293Z,4.85
2023-02-05T21:00:44.604Z,5.03
2023-02-05T21:03:31.308Z,5.47
2023-02-05T21:06:18.934Z,5.60
2023-02-05T21:09:07.238Z,6.50
2023-02-05T21:11:55.411Z,5.38
2023-02-05T21:14:42.065Z,5.15
2023-02-05T21:17:29.963Z,5.72
2023-02-05T21:20:17.363Z,5.80
2023-02-05T21:23:03.900Z,5.70
2023-02-05T21:25:51.563Z,4.72
2023-02-05T21:28:37.899Z,6.30
2023-02-05T21:31:25.541Z,5.57
2023-02-05T21:34:15.550Z,6.93
2023-02-05T21:37:01.922Z,5.20
2023-02-05T21:39:50.874Z,5.85
2023-02-05T21:42:39.384Z,5.68
2023-02-05T21:45:26.343Z,5.80
2023-02-05T21:48:14.225Z,5.82
2023-02-05T21:51:06.649Z,5.70
2023-02-05T21:53:58.773Z,6.45
2023-02-05T21:56:45.686Z,4.80
2023-02-05T21:59:32.438Z,5.35
2023-02-05T22:02:19.160Z,6.07
2023-02-05T22:05:07.078Z,5.10
2023-02-05T22:07:55.456Z,4.75
2023-02-05T22:10:42.116Z,5.25
2023-02-05T22:13:32.108Z,5.13
2023-02-05T22:16:20.790Z,4.43
2023-02-05T22:19:07.952Z,6.05
2023-02-05T22:21:55.242Z,7.07
2023-02-05T22:24:43.652Z,7.47
2023-02-05T22:27:30.868Z,7.53
2023-02-05T22:30:17.751Z,5.90
2023-02-05T22:33:04.406Z,5.35
2023-02-05T22:35:52.850Z,6.00
2023-02-05T22:38:42.446Z,6.63
2023-02-05T22:41:33.378Z,7.07
2023-02-05T22:44:20.454Z,6.63
2023-02-05T22:47:06.893Z,5.65
2023-02-05T22:49:53.579Z,5.80
2023-02-05T22:52:40.237Z,5.28
2023-02-05T22:55:26.975Z,6.25
2023-02-05T22:58:15.020Z,6.57
2023-02-05T23:04:38.683Z,4.82
2023-02-05T23:07:25.238Z,5.60
2023-02-05T23:10:11.885Z,5.57
2023-02-05T23:12:58.901Z,6.22
2023-02-05T23:15:46.768Z,4.75
2023-02-05T23:18:33.195Z,6.13
2023-02-05T23:21:22.884Z,5.72
2023-02-05T23:24:10.047Z,4.95
2023-02-05T23:26:56.490Z,4.65
2023-02-05T23:29:43.059Z,4.75
2023-02-05T23:32:30.992Z,5.57
2023-02-05T23:35:17.615Z,5.00
2023-02-05T23:38:04.056Z,5.65
2023-02-05T23:40:50.868Z,4.35
2023-02-05T23:43:38.246Z,4.72
2023-02-05T23:46:24.844Z,4.30
2023-02-05T23:49:13.560Z,5.35
2023-02-05T23:52:00.070Z,6.97
2023-02-05T23:54:46.573Z,5.72
2023-02-05T23:57:33.558Z,5.47
